sensor_id;sensor_type;location;lat;lon;timestamp;temperature;humidity
49242;DHT22;35079;52.704;13.814;2023-08-21T00:02:22;20.00;99.90
49242;DHT22;35079;52.704;13.814;2023-08-21T00:04:48;19.90;99.90
49242;DHT22;35079;52.704;13.814;2023-08-21T00:07:13;20.00;99.90
49242;DHT22;35079;52.704;13.814;2023-08-21T00:09:39;20.00;99.90
49242;DHT22;35079;52.704;13.814;2023-08-21T00:12:06;19.80;99.90
49242;DHT22;35079;52.704;13.814;2023-08-21T00:14:32;19.70;99.90
49242;DHT22;35079;52.704;13.814;2023-08-21T00:16:58;19.70;99.90
49242;DHT22;35079;52.704;13.814;2023-08-21T00:19:23;19.70;99.90
49242;DHT22;35079;52.704;13.814;2023-08-21T00:21:49;19.70;99.90
49242;DHT22;35079;52.704;13.814;2023-08-21T00:24:14;19.70;99.90
49242;DHT22;35079;52.704;13.814;2023-08-21T00:26:40;19.50;99.90
49242;DHT22;35079;52.704;13.814;2023-08-21T00:29:06;19.60;99.90
49242;DHT22;35079;52.704;13.814;2023-08-21T00:31:31;19.60;99.90
49242;DHT22;35079;52.704;13.814;2023-08-21T00:33:57;19.60;99.90
49242;DHT22;35079;52.704;13.814;2023-08-21T00:36:22;19.30;99.90
49242;DHT22;35079;52.704;13.814;2023-08-21T00:38:48;19.50;99.90
49242;DHT22;35079;52.704;13.814;2023-08-21T00:41:14;19.50;99.90
49242;DHT22;35079;52.704;13.814;2023-08-21T00:43:39;19.50;99.90
49242;DHT22;35079;52.704;13.814;2023-08-21T00:46:05;19.70;99.90
49242;DHT22;35079;52.704;13.814;2023-08-21T00:48:31;19.40;99.90
49242;DHT22;35079;52.704;13.814;2023-08-21T00:50:57;19.20;99.90
49242;DHT22;35079;52.704;13.814;2023-08-21T00:53:24;19.40;99.90
49242;DHT22;35079;52.704;13.814;2023-08-21T00:55:50;19.50;99.90
49242;DHT22;35079;52.704;13.814;2023-08-21T00:58:16;19.70;99.90
49242;DHT22;35079;52.704;13.814;2023-08-21T01:00:45;19.50;99.90
49242;DHT22;35079;52.704;13.814;2023-08-21T01:03:12;19.70;99.90
49242;DHT22;35079;52.704;13.814;2023-08-21T01:05:38;19.50;99.90
49242;DHT22;35079;52.704;13.814;2023-08-21T01:08:17;19.30;99.90
49242;DHT22;35079;52.704;13.814;2023-08-21T01:10:51;19.40;99.90
49242;DHT22;35079;52.704;13.814;2023-08-21T01:13:40;19.50;99.90
49242;DHT22;35079;52.704;13.814;2023-08-21T01:16:10;19.40;99.90
49242;DHT22;35079;52.704;13.814;2023-08-21T01:18:38;19.60;99.90
49242;DHT22;35079;52.704;13.814;2023-08-21T01:21:05;19.70;99.90
49242;DHT22;35079;52.704;13.814;2023-08-21T01:23:35;19.60;99.90
49242;DHT22;35079;52.704;13.814;2023-08-21T01:26:00;19.50;99.90
49242;DHT22;35079;52.704;13.814;2023-08-21T01:28:26;19.60;99.90
49242;DHT22;35079;52.704;13.814;2023-08-21T01:33:33;19.40;99.90
49242;DHT22;35079;52.704;13.814;2023-08-21T01:36:01;19.40;99.90
49242;DHT22;35079;52.704;13.814;2023-08-21T01:38:32;19.50;99.90
49242;DHT22;35079;52.704;13.814;2023-08-21T01:40:58;19.50;99.90
49242;DHT22;35079;52.704;13.814;2023-08-21T01:43:24;19.60;99.90
49242;DHT22;35079;52.704;13.814;2023-08-21T01:45:50;19.70;99.90
49242;DHT22;35079;52.704;13.814;2023-08-21T01:48:15;19.70;99.90
49242;DHT22;35079;52.704;13.814;2023-08-21T01:50:41;19.70;99.90
49242;DHT22;35079;52.704;13.814;2023-08-21T01:53:06;19.70;99.90
49242;DHT22;35079;52.704;13.814;2023-08-21T01:55:32;19.70;99.90
49242;DHT22;35079;52.704;13.814;2023-08-21T01:57:58;19.60;99.90
49242;DHT22;35079;52.704;13.814;2023-08-21T02:00:23;19.80;99.90
49242;DHT22;35079;52.704;13.814;2023-08-21T02:02:49;19.60;99.90
49242;DHT22;35079;52.704;13.814;2023-08-21T02:05:15;19.70;99.90
49242;DHT22;35079;52.704;13.814;2023-08-21T02:07:40;19.60;99.90
49242;DHT22;35079;52.704;13.814;2023-08-21T02:10:07;19.60;99.90
49242;DHT22;35079;52.704;13.814;2023-08-21T02:12:32;19.60;99.90
49242;DHT22;35079;52.704;13.814;2023-08-21T02:14:58;19.70;99.90
49242;DHT22;35079;52.704;13.814;2023-08-21T02:17:26;19.70;99.90
49242;DHT22;35079;52.704;13.814;2023-08-21T02:19:52;19.80;99.90
49242;DHT22;35079;52.704;13.814;2023-08-21T02:22:18;20.00;99.90
49242;DHT22;35079;52.704;13.814;2023-08-21T02:24:43;19.90;99.90
49242;DHT22;35079;52.704;13.814;2023-08-21T02:27:09;19.90;99.90
49242;DHT22;35079;52.704;13.814;2023-08-21T02:29:35;19.80;99.90
49242;DHT22;35079;52.704;13.814;2023-08-21T02:32:01;19.80;99.90
49242;DHT22;35079;52.704;13.814;2023-08-21T02:34:26;19.80;99.90
49242;DHT22;35079;52.704;13.814;2023-08-21T02:36:52;20.00;99.90
49242;DHT22;35079;52.704;13.814;2023-08-21T02:39:18;20.00;99.90
49242;DHT22;35079;52.704;13.814;2023-08-21T02:41:52;20.10;99.90
49242;DHT22;35079;52.704;13.814;2023-08-21T02:44:18;20.20;99.90
49242;DHT22;35079;52.704;13.814;2023-08-21T02:46:43;20.20;99.90
49242;DHT22;35079;52.704;13.814;2023-08-21T02:49:09;20.20;99.90
49242;DHT22;35079;52.704;13.814;2023-08-21T02:51:35;20.10;99.90
49242;DHT22;35079;52.704;13.814;2023-08-21T02:54:01;20.20;99.90
49242;DHT22;35079;52.704;13.814;2023-08-21T02:56:29;20.10;99.90
49242;DHT22;35079;52.704;13.814;2023-08-21T02:58:55;20.20;99.90
49242;DHT22;35079;52.704;13.814;2023-08-21T03:01:20;20.10;99.90
49242;DHT22;35079;52.704;13.814;2023-08-21T03:03:46;20.10;99.90
49242;DHT22;35079;52.704;13.814;2023-08-21T03:06:12;20.10;99.90
49242;DHT22;35079;52.704;13.814;2023-08-21T03:08:38;20.10;99.90
49242;DHT22;35079;52.704;13.814;2023-08-21T03:11:04;20.10;99.90
49242;DHT22;35079;52.704;13.814;2023-08-21T03:13:29;20.00;99.90
49242;DHT22;35079;52.704;13.814;2023-08-21T03:15:55;19.90;99.90
49242;DHT22;35079;52.704;13.814;2023-08-21T03:18:21;20.00;99.90
49242;DHT22;35079;52.704;13.814;2023-08-21T03:20:47;19.90;99.90
49242;DHT22;35079;52.704;13.814;2023-08-21T03:23:13;19.90;99.90
49242;DHT22;35079;52.704;13.814;2023-08-21T03:25:39;20.00;99.90
49242;DHT22;35079;52.704;13.814;2023-08-21T03:28:05;19.90;99.90
49242;DHT22;35079;52.704;13.814;2023-08-21T03:30:31;19.90;99.90
49242;DHT22;35079;52.704;13.814;2023-08-21T03:32:56;20.00;99.90
49242;DHT22;35079;52.704;13.814;2023-08-21T03:35:23;20.00;99.90
49242;DHT22;35079;52.704;13.814;2023-08-21T03:37:48;19.90;99.90
49242;DHT22;35079;52.704;13.814;2023-08-21T03:40:20;19.90;99.90
49242;DHT22;35079;52.704;13.814;2023-08-21T03:42:45;19.90;99.90
49242;DHT22;35079;52.704;13.814;2023-08-21T03:45:18;19.90;99.90
49242;DHT22;35079;52.704;13.814;2023-08-21T03:47:44;19.80;99.90
49242;DHT22;35079;52.704;13.814;2023-08-21T03:50:09;19.80;99.90
49242;DHT22;35079;52.704;13.814;2023-08-21T03:52:35;19.80;99.90
49242;DHT22;35079;52.704;13.814;2023-08-21T03:55:01;19.70;99.90
49242;DHT22;35079;52.704;13.814;2023-08-21T03:57:26;19.80;99.90
49242;DHT22;35079;52.704;13.814;2023-08-21T03:59:52;19.80;99.90
49242;DHT22;35079;52.704;13.814;2023-08-21T04:02:18;19.80;99.90
49242;DHT22;35079;52.704;13.814;2023-08-21T04:04:44;19.80;99.90
49242;DHT22;35079;52.704;13.814;2023-08-21T04:07:09;19.80;99.90
49242;DHT22;35079;52.704;13.814;2023-08-21T04:09:35;19.80;99.90
49242;DHT22;35079;52.704;13.814;2023-08-21T04:12:01;19.80;99.90
49242;DHT22;35079;52.704;13.814;2023-08-21T04:14:27;19.90;99.90
49242;DHT22;35079;52.704;13.814;2023-08-21T04:16:53;19.90;99.90
49242;DHT22;35079;52.704;13.814;2023-08-21T04:19:18;19.80;99.90
49242;DHT22;35079;52.704;13.814;2023-08-21T04:21:44;19.70;99.90
49242;DHT22;35079;52.704;13.814;2023-08-21T04:24:10;19.80;99.90
49242;DHT22;35079;52.704;13.814;2023-08-21T04:26:35;19.70;99.90
49242;DHT22;35079;52.704;13.814;2023-08-21T04:29:01;19.70;99.90
49242;DHT22;35079;52.704;13.814;2023-08-21T04:31:27;19.60;99.90
49242;DHT22;35079;52.704;13.814;2023-08-21T04:33:53;19.70;99.90
49242;DHT22;35079;52.704;13.814;2023-08-21T04:36:18;19.70;99.90
49242;DHT22;35079;52.704;13.814;2023-08-21T04:38:44;19.60;99.90
49242;DHT22;35079;52.704;13.814;2023-08-21T04:41:10;19.70;99.90
49242;DHT22;35079;52.704;13.814;2023-08-21T04:43:39;19.80;99.90
49242;DHT22;35079;52.704;13.814;2023-08-21T04:46:05;19.90;99.90
49242;DHT22;35079;52.704;13.814;2023-08-21T04:48:31;19.80;99.90
49242;DHT22;35079;52.704;13.814;2023-08-21T04:50:57;19.80;99.90
49242;DHT22;35079;52.704;13.814;2023-08-21T04:53:23;19.80;99.90
49242;DHT22;35079;52.704;13.814;2023-08-21T04:55:48;19.60;99.90
49242;DHT22;35079;52.704;13.814;2023-08-21T04:58:14;19.70;99.90
49242;DHT22;35079;52.704;13.814;2023-08-21T05:00:44;19.70;99.90
49242;DHT22;35079;52.704;13.814;2023-08-21T05:03:11;19.70;99.90
49242;DHT22;35079;52.704;13.814;2023-08-21T05:05:37;19.70;99.90
49242;DHT22;35079;52.704;13.814;2023-08-21T05:08:03;19.80;99.90
49242;DHT22;35079;52.704;13.814;2023-08-21T05:10:29;19.90;99.90
49242;DHT22;35079;52.704;13.814;2023-08-21T05:12:57;19.90;99.90
49242;DHT22;35079;52.704;13.814;2023-08-21T05:15:23;20.10;99.90
49242;DHT22;35079;52.704;13.814;2023-08-21T05:17:48;20.20;99.90
49242;DHT22;35079;52.704;13.814;2023-08-21T05:20:14;20.30;99.90
49242;DHT22;35079;52.704;13.814;2023-08-21T05:22:40;20.40;99.90
49242;DHT22;35079;52.704;13.814;2023-08-21T05:25:07;20.60;99.90
49242;DHT22;35079;52.704;13.814;2023-08-21T05:27:33;20.70;99.90
49242;DHT22;35079;52.704;13.814;2023-08-21T05:29:58;20.70;99.90
49242;DHT22;35079;52.704;13.814;2023-08-21T05:32:24;21.10;99.90
49242;DHT22;35079;52.704;13.814;2023-08-21T05:34:50;21.30;99.90
49242;DHT22;35079;52.704;13.814;2023-08-21T05:37:15;21.20;99.90
49242;DHT22;35079;52.704;13.814;2023-08-21T05:39:44;21.20;99.90
49242;DHT22;35079;52.704;13.814;2023-08-21T05:42:10;21.10;99.90
49242;DHT22;35079;52.704;13.814;2023-08-21T05:44:35;21.10;99.90
49242;DHT22;35079;52.704;13.814;2023-08-21T05:47:01;21.00;99.90
49242;DHT22;35079;52.704;13.814;2023-08-21T05:49:27;21.20;99.90
49242;DHT22;35079;52.704;13.814;2023-08-21T05:51:52;21.30;99.90
49242;DHT22;35079;52.704;13.814;2023-08-21T05:54:19;21.50;99.90
49242;DHT22;35079;52.704;13.814;2023-08-21T05:56:44;21.40;99.90
49242;DHT22;35079;52.704;13.814;2023-08-21T05:59:10;21.50;99.90
49242;DHT22;35079;52.704;13.814;2023-08-21T06:01:37;21.60;99.90
49242;DHT22;35079;52.704;13.814;2023-08-21T06:04:02;21.60;99.90
49242;DHT22;35079;52.704;13.814;2023-08-21T06:06:28;21.70;99.90
49242;DHT22;35079;52.704;13.814;2023-08-21T06:08:54;22.00;99.90
49242;DHT22;35079;52.704;13.814;2023-08-21T06:11:20;22.30;99.90
49242;DHT22;35079;52.704;13.814;2023-08-21T06:13:47;22.30;99.90
49242;DHT22;35079;52.704;13.814;2023-08-21T06:16:13;22.30;99.90
49242;DHT22;35079;52.704;13.814;2023-08-21T06:18:38;22.40;99.90
49242;DHT22;35079;52.704;13.814;2023-08-21T06:21:04;22.30;99.90
49242;DHT22;35079;52.704;13.814;2023-08-21T06:23:29;22.30;99.90
49242;DHT22;35079;52.704;13.814;2023-08-21T06:25:55;22.20;99.90
49242;DHT22;35079;52.704;13.814;2023-08-21T06:28:20;22.30;99.90
49242;DHT22;35079;52.704;13.814;2023-08-21T06:30:46;22.30;99.90
49242;DHT22;35079;52.704;13.814;2023-08-21T06:33:12;22.30;99.90
49242;DHT22;35079;52.704;13.814;2023-08-21T06:35:38;22.40;99.90
49242;DHT22;35079;52.704;13.814;2023-08-21T06:38:04;22.20;99.90
49242;DHT22;35079;52.704;13.814;2023-08-21T06:40:29;22.20;99.90
49242;DHT22;35079;52.704;13.814;2023-08-21T06:42:55;22.30;99.90
49242;DHT22;35079;52.704;13.814;2023-08-21T06:45:20;22.20;99.90
49242;DHT22;35079;52.704;13.814;2023-08-21T06:47:46;22.30;99.90
49242;DHT22;35079;52.704;13.814;2023-08-21T06:50:12;22.50;99.90
49242;DHT22;35079;52.704;13.814;2023-08-21T06:52:38;22.60;99.90
49242;DHT22;35079;52.704;13.814;2023-08-21T06:55:04;22.80;99.90
49242;DHT22;35079;52.704;13.814;2023-08-21T06:57:30;22.80;99.90
49242;DHT22;35079;52.704;13.814;2023-08-21T06:59:56;22.90;99.90
49242;DHT22;35079;52.704;13.814;2023-08-21T07:02:22;23.20;99.90
49242;DHT22;35079;52.704;13.814;2023-08-21T07:04:48;23.30;99.90
49242;DHT22;35079;52.704;13.814;2023-08-21T07:07:14;23.40;99.90
49242;DHT22;35079;52.704;13.814;2023-08-21T07:09:40;23.70;99.90
49242;DHT22;35079;52.704;13.814;2023-08-21T07:12:06;23.70;99.90
49242;DHT22;35079;52.704;13.814;2023-08-21T07:14:31;23.90;99.90
49242;DHT22;35079;52.704;13.814;2023-08-21T07:16:57;24.00;99.90
49242;DHT22;35079;52.704;13.814;2023-08-21T07:19:23;24.30;99.90
49242;DHT22;35079;52.704;13.814;2023-08-21T07:21:48;24.40;99.90
49242;DHT22;35079;52.704;13.814;2023-08-21T07:24:14;24.50;99.90
49242;DHT22;35079;52.704;13.814;2023-08-21T07:26:40;24.40;99.90
49242;DHT22;35079;52.704;13.814;2023-08-21T07:29:05;24.20;99.90
49242;DHT22;35079;52.704;13.814;2023-08-21T07:31:31;24.10;99.90
49242;DHT22;35079;52.704;13.814;2023-08-21T07:33:57;24.10;99.90
49242;DHT22;35079;52.704;13.814;2023-08-21T07:36:23;24.20;99.90
49242;DHT22;35079;52.704;13.814;2023-08-21T07:38:49;24.40;99.90
49242;DHT22;35079;52.704;13.814;2023-08-21T07:41:15;24.80;99.90
49242;DHT22;35079;52.704;13.814;2023-08-21T07:43:42;25.00;99.90
49242;DHT22;35079;52.704;13.814;2023-08-21T07:46:10;25.10;99.90
49242;DHT22;35079;52.704;13.814;2023-08-21T07:48:38;25.40;99.90
49242;DHT22;35079;52.704;13.814;2023-08-21T07:51:04;25.30;99.90
49242;DHT22;35079;52.704;13.814;2023-08-21T07:53:30;25.20;99.90
49242;DHT22;35079;52.704;13.814;2023-08-21T07:55:57;25.00;99.90
49242;DHT22;35079;52.704;13.814;2023-08-21T07:58:23;24.60;99.90
49242;DHT22;35079;52.704;13.814;2023-08-21T08:00:48;25.00;99.90
49242;DHT22;35079;52.704;13.814;2023-08-21T08:03:14;25.00;99.90
49242;DHT22;35079;52.704;13.814;2023-08-21T08:05:41;25.00;99.90
49242;DHT22;35079;52.704;13.814;2023-08-21T08:08:08;25.00;99.90
49242;DHT22;35079;52.704;13.814;2023-08-21T08:10:35;24.80;99.90
49242;DHT22;35079;52.704;13.814;2023-08-21T08:13:02;24.80;99.90
49242;DHT22;35079;52.704;13.814;2023-08-21T08:15:27;24.60;99.90
49242;DHT22;35079;52.704;13.814;2023-08-21T08:17:54;24.90;99.90
49242;DHT22;35079;52.704;13.814;2023-08-21T08:20:20;25.00;99.90
49242;DHT22;35079;52.704;13.814;2023-08-21T08:22:46;25.20;99.90
49242;DHT22;35079;52.704;13.814;2023-08-21T08:25:11;25.20;99.90
49242;DHT22;35079;52.704;13.814;2023-08-21T08:27:39;25.20;99.90
49242;DHT22;35079;52.704;13.814;2023-08-21T08:30:05;25.40;99.90
49242;DHT22;35079;52.704;13.814;2023-08-21T08:32:31;25.30;99.90
49242;DHT22;35079;52.704;13.814;2023-08-21T08:34:56;25.40;99.90
49242;DHT22;35079;52.704;13.814;2023-08-21T08:37:22;25.40;99.90
49242;DHT22;35079;52.704;13.814;2023-08-21T08:39:48;25.80;99.90
49242;DHT22;35079;52.704;13.814;2023-08-21T08:42:15;25.90;99.90
49242;DHT22;35079;52.704;13.814;2023-08-21T08:44:42;25.70;99.90
49242;DHT22;35079;52.704;13.814;2023-08-21T08:47:11;25.70;99.90
49242;DHT22;35079;52.704;13.814;2023-08-21T08:49:39;25.80;99.90
49242;DHT22;35079;52.704;13.814;2023-08-21T08:52:05;26.30;99.90
49242;DHT22;35079;52.704;13.814;2023-08-21T08:54:32;26.80;99.90
49242;DHT22;35079;52.704;13.814;2023-08-21T08:56:58;27.10;99.90
49242;DHT22;35079;52.704;13.814;2023-08-21T08:59:24;27.00;99.90
49242;DHT22;35079;52.704;13.814;2023-08-21T09:01:56;26.80;99.90
49242;DHT22;35079;52.704;13.814;2023-08-21T09:04:22;26.60;99.90
49242;DHT22;35079;52.704;13.814;2023-08-21T09:06:54;26.70;99.90
49242;DHT22;35079;52.704;13.814;2023-08-21T09:09:38;27.00;99.90
49242;DHT22;35079;52.704;13.814;2023-08-21T09:12:09;27.00;99.90
49242;DHT22;35079;52.704;13.814;2023-08-21T09:14:36;27.10;99.90
49242;DHT22;35079;52.704;13.814;2023-08-21T09:17:02;27.00;99.90
49242;DHT22;35079;52.704;13.814;2023-08-21T09:19:29;26.60;99.90
49242;DHT22;35079;52.704;13.814;2023-08-21T09:21:55;27.10;99.90
49242;DHT22;35079;52.704;13.814;2023-08-21T09:24:24;27.60;99.90
49242;DHT22;35079;52.704;13.814;2023-08-21T09:26:50;28.00;99.90
49242;DHT22;35079;52.704;13.814;2023-08-21T09:29:16;28.60;99.80
49242;DHT22;35079;52.704;13.814;2023-08-21T09:31:46;29.30;99.50
49242;DHT22;35079;52.704;13.814;2023-08-21T09:34:14;29.90;99.90
49242;DHT22;35079;52.704;13.814;2023-08-21T09:36:54;30.50;96.70
49242;DHT22;35079;52.704;13.814;2023-08-21T09:39:20;30.70;93.80
49242;DHT22;35079;52.704;13.814;2023-08-21T09:41:57;30.10;94.40
49242;DHT22;35079;52.704;13.814;2023-08-21T09:44:23;29.50;94.10
49242;DHT22;35079;52.704;13.814;2023-08-21T09:46:50;28.90;93.80
49242;DHT22;35079;52.704;13.814;2023-08-21T09:49:17;29.00;95.40
49242;DHT22;35079;52.704;13.814;2023-08-21T09:51:43;29.00;95.20
49242;DHT22;35079;52.704;13.814;2023-08-21T09:54:11;29.00;95.90
49242;DHT22;35079;52.704;13.814;2023-08-21T09:56:37;28.80;95.10
49242;DHT22;35079;52.704;13.814;2023-08-21T09:59:03;28.90;95.10
49242;DHT22;35079;52.704;13.814;2023-08-21T10:01:31;28.90;93.60
49242;DHT22;35079;52.704;13.814;2023-08-21T10:04:02;29.40;93.60
49242;DHT22;35079;52.704;13.814;2023-08-21T10:06:29;30.50;95.60
49242;DHT22;35079;52.704;13.814;2023-08-21T10:08:59;31.00;91.40
49242;DHT22;35079;52.704;13.814;2023-08-21T10:11:25;32.10;92.60
49242;DHT22;35079;52.704;13.814;2023-08-21T10:13:51;32.40;90.40
49242;DHT22;35079;52.704;13.814;2023-08-21T10:16:18;32.90;86.60
49242;DHT22;35079;52.704;13.814;2023-08-21T10:18:45;32.40;86.80
49242;DHT22;35079;52.704;13.814;2023-08-21T10:21:12;31.40;86.90
49242;DHT22;35079;52.704;13.814;2023-08-21T10:23:39;31.00;90.60
49242;DHT22;35079;52.704;13.814;2023-08-21T10:26:06;31.60;89.80
49242;DHT22;35079;52.704;13.814;2023-08-21T10:28:52;32.60;87.90
49242;DHT22;35079;52.704;13.814;2023-08-21T10:31:35;33.60;85.00
49242;DHT22;35079;52.704;13.814;2023-08-21T10:34:06;34.60;81.60
49242;DHT22;35079;52.704;13.814;2023-08-21T10:41:39;34.10;80.70
49242;DHT22;35079;52.704;13.814;2023-08-21T10:44:05;34.30;78.60
49242;DHT22;35079;52.704;13.814;2023-08-21T10:46:50;35.00;74.60
49242;DHT22;35079;52.704;13.814;2023-08-21T10:49:16;35.10;81.20
49242;DHT22;35079;52.704;13.814;2023-08-21T10:51:42;34.10;75.40
49242;DHT22;35079;52.704;13.814;2023-08-21T10:54:13;33.90;74.50
49242;DHT22;35079;52.704;13.814;2023-08-21T10:56:39;33.60;76.70
49242;DHT22;35079;52.704;13.814;2023-08-21T10:59:05;33.10;76.80
49242;DHT22;35079;52.704;13.814;2023-08-21T11:01:44;33.00;77.60
49242;DHT22;35079;52.704;13.814;2023-08-21T11:04:11;32.60;77.30
49242;DHT22;35079;52.704;13.814;2023-08-21T11:06:38;32.70;74.40
49242;DHT22;35079;52.704;13.814;2023-08-21T11:09:04;33.00;80.10
49242;DHT22;35079;52.704;13.814;2023-08-21T11:11:30;33.30;74.10
49242;DHT22;35079;52.704;13.814;2023-08-21T11:13:56;33.10;78.10
49242;DHT22;35079;52.704;13.814;2023-08-21T11:16:21;32.90;73.20
49242;DHT22;35079;52.704;13.814;2023-08-21T11:18:47;31.70;78.70
49242;DHT22;35079;52.704;13.814;2023-08-21T11:21:12;31.10;81.60
49242;DHT22;35079;52.704;13.814;2023-08-21T11:23:42;30.70;80.00
49242;DHT22;35079;52.704;13.814;2023-08-21T11:26:11;30.40;86.00
49242;DHT22;35079;52.704;13.814;2023-08-21T11:28:38;30.10;87.70
49242;DHT22;35079;52.704;13.814;2023-08-21T11:31:05;29.20;91.60
49242;DHT22;35079;52.704;13.814;2023-08-21T11:33:31;29.10;89.90
49242;DHT22;35079;52.704;13.814;2023-08-21T11:35:57;28.80;91.60
49242;DHT22;35079;52.704;13.814;2023-08-21T11:38:26;28.70;89.00
49242;DHT22;35079;52.704;13.814;2023-08-21T11:41:00;28.70;91.20
49242;DHT22;35079;52.704;13.814;2023-08-21T11:43:38;28.70;94.90
49242;DHT22;35079;52.704;13.814;2023-08-21T11:46:05;28.60;91.30
49242;DHT22;35079;52.704;13.814;2023-08-21T11:48:31;29.00;88.80
49242;DHT22;35079;52.704;13.814;2023-08-21T11:50:57;29.50;90.80
49242;DHT22;35079;52.704;13.814;2023-08-21T11:53:37;29.70;84.80
49242;DHT22;35079;52.704;13.814;2023-08-21T11:56:03;29.60;83.90
49242;DHT22;35079;52.704;13.814;2023-08-21T11:58:38;29.30;83.40
49242;DHT22;35079;52.704;13.814;2023-08-21T12:01:04;29.40;82.90
49242;DHT22;35079;52.704;13.814;2023-08-21T12:03:30;28.90;91.10
49242;DHT22;35079;52.704;13.814;2023-08-21T12:05:56;28.80;90.80
49242;DHT22;35079;52.704;13.814;2023-08-21T12:08:22;28.80;90.40
49242;DHT22;35079;52.704;13.814;2023-08-21T12:10:51;29.70;90.20
49242;DHT22;35079;52.704;13.814;2023-08-21T12:13:20;30.20;87.60
49242;DHT22;35079;52.704;13.814;2023-08-21T12:15:45;30.70;87.70
49242;DHT22;35079;52.704;13.814;2023-08-21T12:18:11;30.30;84.70
49242;DHT22;35079;52.704;13.814;2023-08-21T12:20:37;30.00;85.10
49242;DHT22;35079;52.704;13.814;2023-08-21T12:23:03;29.40;81.20
49242;DHT22;35079;52.704;13.814;2023-08-21T12:25:28;28.80;85.00
49242;DHT22;35079;52.704;13.814;2023-08-21T12:27:55;28.80;87.20
49242;DHT22;35079;52.704;13.814;2023-08-21T12:30:21;28.50;90.70
49242;DHT22;35079;52.704;13.814;2023-08-21T12:32:48;28.40;90.90
49242;DHT22;35079;52.704;13.814;2023-08-21T12:35:13;28.70;90.50
49242;DHT22;35079;52.704;13.814;2023-08-21T12:37:39;28.80;91.50
49242;DHT22;35079;52.704;13.814;2023-08-21T12:40:06;29.00;91.20
49242;DHT22;35079;52.704;13.814;2023-08-21T12:42:32;28.70;90.20
49242;DHT22;35079;52.704;13.814;2023-08-21T12:44:57;28.50;88.80
49242;DHT22;35079;52.704;13.814;2023-08-21T12:47:23;28.60;88.90
49242;DHT22;35079;52.704;13.814;2023-08-21T12:49:48;28.80;88.20
49242;DHT22;35079;52.704;13.814;2023-08-21T12:52:14;28.90;87.40
49242;DHT22;35079;52.704;13.814;2023-08-21T12:54:40;28.90;87.70
49242;DHT22;35079;52.704;13.814;2023-08-21T12:57:05;28.90;87.60
49242;DHT22;35079;52.704;13.814;2023-08-21T12:59:32;28.30;91.50
49242;DHT22;35079;52.704;13.814;2023-08-21T13:02:01;28.10;91.30
49242;DHT22;35079;52.704;13.814;2023-08-21T13:04:27;28.00;89.10
49242;DHT22;35079;52.704;13.814;2023-08-21T13:06:53;28.10;91.20
49242;DHT22;35079;52.704;13.814;2023-08-21T13:09:19;28.30;91.00
49242;DHT22;35079;52.704;13.814;2023-08-21T13:11:44;28.70;91.40
49242;DHT22;35079;52.704;13.814;2023-08-21T13:14:10;28.60;90.20
49242;DHT22;35079;52.704;13.814;2023-08-21T13:16:35;28.30;91.00
49242;DHT22;35079;52.704;13.814;2023-08-21T13:19:01;28.20;92.40
49242;DHT22;35079;52.704;13.814;2023-08-21T13:21:27;28.00;94.40
49242;DHT22;35079;52.704;13.814;2023-08-21T13:23:52;27.80;91.40
49242;DHT22;35079;52.704;13.814;2023-08-21T13:26:18;27.90;94.70
49242;DHT22;35079;52.704;13.814;2023-08-21T13:28:43;28.00;90.90
49242;DHT22;35079;52.704;13.814;2023-08-21T13:31:10;28.00;88.10
49242;DHT22;35079;52.704;13.814;2023-08-21T13:33:50;27.70;88.30
49242;DHT22;35079;52.704;13.814;2023-08-21T13:36:16;27.50;91.60
49242;DHT22;35079;52.704;13.814;2023-08-21T13:38:43;27.20;86.60
49242;DHT22;35079;52.704;13.814;2023-08-21T13:41:09;27.30;91.30
49242;DHT22;35079;52.704;13.814;2023-08-21T13:43:35;27.60;88.80
49242;DHT22;35079;52.704;13.814;2023-08-21T13:46:01;27.80;86.10
49242;DHT22;35079;52.704;13.814;2023-08-21T13:48:29;27.90;90.10
49242;DHT22;35079;52.704;13.814;2023-08-21T13:50:56;27.80;86.60
49242;DHT22;35079;52.704;13.814;2023-08-21T13:53:21;27.80;88.20
49242;DHT22;35079;52.704;13.814;2023-08-21T13:55:47;27.40;90.00
49242;DHT22;35079;52.704;13.814;2023-08-21T13:58:13;27.60;90.20
49242;DHT22;35079;52.704;13.814;2023-08-21T14:00:39;27.50;89.90
49242;DHT22;35079;52.704;13.814;2023-08-21T14:03:04;27.30;88.10
49242;DHT22;35079;52.704;13.814;2023-08-21T14:05:30;27.40;86.60
49242;DHT22;35079;52.704;13.814;2023-08-21T14:07:57;27.50;91.50
49242;DHT22;35079;52.704;13.814;2023-08-21T14:10:23;27.40;85.70
49242;DHT22;35079;52.704;13.814;2023-08-21T14:12:49;27.40;88.10
49242;DHT22;35079;52.704;13.814;2023-08-21T14:15:14;27.50;89.00
49242;DHT22;35079;52.704;13.814;2023-08-21T14:17:40;27.60;86.10
49242;DHT22;35079;52.704;13.814;2023-08-21T14:20:07;27.50;85.20
49242;DHT22;35079;52.704;13.814;2023-08-21T14:22:33;27.40;93.40
49242;DHT22;35079;52.704;13.814;2023-08-21T14:24:59;27.30;90.40
49242;DHT22;35079;52.704;13.814;2023-08-21T14:27:24;27.20;87.20
49242;DHT22;35079;52.704;13.814;2023-08-21T14:29:50;27.00;92.40
49242;DHT22;35079;52.704;13.814;2023-08-21T14:32:16;26.80;90.10
49242;DHT22;35079;52.704;13.814;2023-08-21T14:34:41;26.70;95.60
49242;DHT22;35079;52.704;13.814;2023-08-21T14:37:07;26.70;91.40
49242;DHT22;35079;52.704;13.814;2023-08-21T14:39:33;26.50;94.30
49242;DHT22;35079;52.704;13.814;2023-08-21T14:41:59;26.70;91.80
49242;DHT22;35079;52.704;13.814;2023-08-21T14:44:24;26.60;94.10
49242;DHT22;35079;52.704;13.814;2023-08-21T14:46:52;26.50;94.40
49242;DHT22;35079;52.704;13.814;2023-08-21T14:49:19;26.60;91.80
49242;DHT22;35079;52.704;13.814;2023-08-21T14:51:45;26.40;92.60
49242;DHT22;35079;52.704;13.814;2023-08-21T14:54:11;26.10;93.10
49242;DHT22;35079;52.704;13.814;2023-08-21T14:56:36;26.40;92.00
49242;DHT22;35079;52.704;13.814;2023-08-21T14:59:02;26.60;91.60
49242;DHT22;35079;52.704;13.814;2023-08-21T15:01:29;26.80;92.60
49242;DHT22;35079;52.704;13.814;2023-08-21T15:03:54;26.70;90.40
49242;DHT22;35079;52.704;13.814;2023-08-21T15:06:20;26.80;92.20
49242;DHT22;35079;52.704;13.814;2023-08-21T15:08:45;26.70;90.80
49242;DHT22;35079;52.704;13.814;2023-08-21T15:11:11;26.90;92.80
49242;DHT22;35079;52.704;13.814;2023-08-21T15:13:38;26.70;88.40
49242;DHT22;35079;52.704;13.814;2023-08-21T15:16:04;26.80;91.50
49242;DHT22;35079;52.704;13.814;2023-08-21T15:18:30;26.70;90.40
49242;DHT22;35079;52.704;13.814;2023-08-21T15:20:55;26.70;87.40